Current Weather

Castle

Atwater, California (KMER)

Report from: Monday, August 15, 2022 5:45 PM PDT
Current time: Monday, August 15, 2022 6:23 PM PDT

Nearby weather
Weather history
Weather forecast

Temperature39.0°C (102.2°F)
Heat index36.5°C (97.8°F)
Dew point6.0°C (42.8°F)
Winds 8 kts (4.1 m/s, 9.2 mph) Northwest (320°)
Visibility10 mi. (16.1 km)
Clouds Sky clear
Altimeter29.75 in.Hg (1007 mB)
Relative humidity13 %
Density altitude3,034 ft. (925 m)
Flight conditions Visual Meteorological Conditions
Raw dataKMER 160045Z 32008KT 10SM CLR 39/06 A2975
An error has occurred. This application may no longer respond until reloaded. Reload 🗙